Terminal Aerodrome Forecast
Issued by NWS Cleveland, OH

Home | Current Version | Previous Version | Graphics & Text | Print | Product List | Glossary Off
Versions: 1 2 3 4 5 6 7 8 9 10 11 12 13 14 15 16 17 18 19 20 21

000
FTUS41 KCLE 152333
TAFYNG
TAF
KYNG 152333Z 1600/1624 23010KT P6SM -SHSN OVC035
      TEMPO 1600/1603 3SM -SHSN OVC015
     FM160300 25010KT P6SM VCSH OVC040
     FM161200 24010KT P6SM OVC050
     FM161600 24012KT P6SM OVC070
     FM162200 23008KT P6SM BKN100=

USA.gov is the U.S. government's official web portal to all federal, state and local government web resources and services.